Time;durP1;ratioP1;P1;durP2;ratioP2;P2;SDS_P1;SDS_P2;PMS_P1;PMS_P2;Temp;Humidity;BMP_temperature;BMP_pressure;BME280_temperature;BME280_humidity;BME280_pressure;Samples;Min_cycle;Max_cycle;Signal;HPM_P1;HPM_P2
2022/10/31 00:00:31;;;;;;;0.83;0.80;;;;;;;19.84;34.09;95544.75;5104072;28;20454;-64
2022/10/31 00:02:58;;;;;;;0.20;0.20;;;;;;;19.85;34.01;95551.66;5108637;28;21057;-65
2022/10/31 00:05:25;;;;;;;0.70;0.70;;;;;;;19.32;34.61;95535.41;5112172;28;20448;-64
2022/10/31 00:07:53;;;;;;;3.93;2.10;;;;;;;19.32;34.87;95548.69;5101982;28;20543;-62
2022/10/31 00:10:20;;;;;;;0.20;0.20;;;;;;;19.49;34.68;95553.44;5094198;28;20445;-63
2022/10/31 00:12:46;;;;;;;0.40;0.40;;;;;;;19.43;34.43;95536.78;5108993;28;20429;-62
2022/10/31 00:15:13;;;;;;;0.17;0.17;;;;;;;19.36;34.98;95543.56;5101663;28;20536;-65
2022/10/31 00:17:40;;;;;;;0.23;0.23;;;;;;;19.66;34.67;95538.47;5090887;28;20491;-64
2022/10/31 00:20:08;;;;;;;0.53;0.53;;;;;;;19.55;34.83;95542.41;5098010;28;20986;-62
2022/10/31 00:22:34;;;;;;;0.20;0.20;;;;;;;19.35;35.28;95548.09;5105591;28;20468;-63
2022/10/31 00:25:01;;;;;;;0.50;0.50;;;;;;;19.72;34.54;95541.81;5097031;28;20807;-67
2022/10/31 00:27:28;;;;;;;0.40;0.40;;;;;;;19.53;34.99;95541.09;5103607;28;20867;-64
2022/10/31 00:29:55;;;;;;;1.67;1.37;;;;;;;19.60;34.91;95546.81;5090741;28;20434;-66
2022/10/31 00:32:21;;;;;;;0.70;0.63;;;;;;;19.60;34.98;95546.81;5090841;28;20532;-64
2022/10/31 00:34:48;;;;;;;1.17;1.07;;;;;;;19.27;35.38;95550.63;5093334;28;20463;-65
2022/10/31 00:37:15;;;;;;;0.67;0.47;;;;;;;19.42;35.36;95537.88;5098517;28;20659;-65
2022/10/31 00:39:45;;;;;;;0.23;0.23;;;;;;;19.51;35.15;95529.97;5099028;28;20973;-67
2022/10/31 00:42:11;;;;;;;0.20;0.20;;;;;;;19.87;34.60;95538.84;5092006;28;20518;-65
2022/10/31 00:44:41;;;;;;;0.37;0.37;;;;;;;19.84;34.89;95539.41;5089108;28;20856;-66
2022/10/31 00:47:08;;;;;;;2.50;1.23;;;;;;;19.79;34.83;95539.53;5090120;28;20903;-64
2022/10/31 00:49:34;;;;;;;0.27;0.27;;;;;;;19.70;35.19;95549.28;5090242;28;20445;-64
2022/10/31 00:52:01;;;;;;;1.33;0.63;;;;;;;19.80;34.86;95549.06;5090328;28;20498;-67
2022/10/31 00:54:30;;;;;;;0.10;0.10;;;;;;;19.39;35.52;95548.28;5092938;28;20460;-66
2022/10/31 00:56:57;;;;;;;0.20;0.20;;;;;;;19.63;35.32;95549.69;5097810;28;21082;-66
2022/10/31 00:59:24;;;;;;;0.50;0.50;;;;;;;19.51;35.64;95548.59;5095071;28;20962;-64
2022/10/31 01:01:51;;;;;;;0.10;0.10;;;;;;;19.04;36.45;95550.50;5097527;28;20510;-66
2022/10/31 01:04:18;;;;;;;0.30;0.30;;;;;;;18.83;36.99;95557.19;5088907;28;20539;-66
2022/10/31 01:06:45;;;;;;;0.40;0.40;;;;;;;18.90;36.75;95556.84;5100624;28;20502;-65
2022/10/31 01:09:12;;;;;;;0.60;0.60;;;;;;;18.69;36.98;95556.38;5096163;27;20546;-65
2022/10/31 01:11:39;;;;;;;0.30;0.30;;;;;;;18.76;37.05;95566.63;5097437;28;20789;-66
2022/10/31 01:14:08;;;;;;;0.87;0.87;;;;;;;18.71;36.96;95559.53;5093711;28;20469;-66
2022/10/31 01:16:35;;;;;;;0.70;0.70;;;;;;;18.77;36.87;95558.38;5094688;28;20473;-64
2022/10/31 01:19:02;;;;;;;6.33;0.97;;;;;;;18.79;36.92;95566.84;5088601;28;20494;-62
2022/10/31 01:21:29;;;;;;;2.73;1.00;;;;;;;18.50;37.32;95566.25;5109848;28;20444;-62
2022/10/31 01:23:58;;;;;;;0.53;0.53;;;;;;;18.45;37.32;95576.16;5096606;28;20452;-63
2022/10/31 01:26:28;;;;;;;0.77;0.77;;;;;;;18.42;37.34;95572.19;5088181;28;20434;-67
2022/10/31 01:28:57;;;;;;;0.97;0.93;;;;;;;18.27;37.82;95574.22;5093422;28;20563;-67
2022/10/31 01:31:28;;;;;;;1.17;1.13;;;;;;;18.33;37.86;95573.88;5098103;28;20442;-64
2022/10/31 01:33:56;;;;;;;1.57;1.47;;;;;;;18.30;37.95;95579.78;5099666;28;20464;-66
2022/10/31 01:36:26;;;;;;;2.00;0.93;;;;;;;18.17;38.01;95580.47;5107583;28;20440;-63
2022/10/31 01:38:55;;;;;;;0.80;0.80;;;;;;;17.91;38.26;95576.56;5089645;28;20433;-64
2022/10/31 01:41:26;;;;;;;0.67;0.67;;;;;;;17.91;38.37;95587.97;5097520;28;20837;-66
2022/10/31 01:43:56;;;;;;;1.50;1.40;;;;;;;18.10;37.99;95574.75;5108663;28;20873;-63
2022/10/31 01:46:32;;;;;;;0.80;0.80;;;;;;;18.06;38.34;95587.00;5109672;28;21326;-64
2022/10/31 01:49:03;;;;;;;0.77;0.73;;;;;;;18.06;38.37;95589.66;5104858;28;20456;-66
2022/10/31 01:51:34;;;;;;;0.53;0.53;;;;;;;17.96;38.36;95587.91;5104460;28;21010;-64
2022/10/31 01:54:06;;;;;;;0.50;0.50;;;;;;;17.94;38.70;95586.59;5091645;28;20438;-67
2022/10/31 01:56:37;;;;;;;1.37;1.27;;;;;;;17.90;38.31;95575.00;5088044;28;20453;-64
2022/10/31 01:59:08;;;;;;;1.87;1.47;;;;;;;17.79;38.43;95576.97;5088153;28;20514;-64
2022/10/31 02:01:37;;;;;;;1.30;1.20;;;;;;;17.75;38.72;95568.03;5098920;28;20453;-64
2022/10/31 02:04:06;;;;;;;3.13;1.07;;;;;;;17.81;38.54;95571.41;5103155;28;20861;-66
2022/10/31 02:06:40;;;;;;;1.13;1.10;;;;;;;17.49;39.46;95564.06;5095313;28;20441;-66
2022/10/31 02:09:06;;;;;;;0.83;0.83;;;;;;;17.57;39.58;95567.97;5096997;28;20441;-66
2022/10/31 02:11:35;;;;;;;0.43;0.43;;;;;;;17.54;39.70;95565.88;5109597;28;20856;-66
2022/10/31 02:14:03;;;;;;;1.07;0.80;;;;;;;17.78;39.09;95571.94;5094983;28;20979;-64
2022/10/31 02:16:30;;;;;;;0.70;0.67;;;;;;;17.56;39.29;95569.03;5102202;28;20469;-66
2022/10/31 02:18:57;;;;;;;0.83;0.83;;;;;;;17.68;39.49;95580.81;5099006;28;20528;-66
2022/10/31 02:21:32;;;;;;;1.03;0.63;;;;;;;17.62;39.44;95578.50;5087794;28;20441;-66
2022/10/31 02:24:20;;;;;;;0.50;0.50;;;;;;;17.61;39.51;95577.72;5087850;28;20480;-65
2022/10/31 02:27:08;;;;;;;0.17;0.17;;;;;;;17.81;39.18;95587.31;5090009;28;20449;-67
2022/10/31 02:30:05;;;;;;;1.60;1.50;;;;;;;17.80;39.54;95585.72;5093831;28;20898;-68
2022/10/31 02:32:42;;;;;;;0.57;0.57;;;;;;;17.97;38.97;95586.03;5108077;28;20505;-68
2022/10/31 02:35:36;;;;;;;0.60;0.60;;;;;;;17.91;39.36;95593.28;5087434;28;21033;-64
2022/10/31 02:38:32;;;;;;;0.30;0.30;;;;;;;17.69;39.26;95589.56;5112096;27;20840;-66
2022/10/31 02:41:44;;;;;;;1.67;1.37;;;;;;;17.78;39.45;95601.09;5091044;28;20559;-62
2022/10/31 02:44:25;;;;;;;1.07;1.03;;;;;;;17.79;39.74;95606.13;5100501;28;20461;-67
2022/10/31 02:47:06;;;;;;;0.23;0.23;;;;;;;17.66;39.77;95600.72;5095658;28;20471;-63
2022/10/31 02:49:38;;;;;;;0.60;0.60;;;;;;;17.67;39.63;95602.28;5107325;28;20444;-64
2022/10/31 02:52:37;;;;;;;1.90;1.53;;;;;;;17.60;40.11;95597.34;5089755;28;20445;-63
2022/10/31 02:55:22;;;;;;;0.80;0.70;;;;;;;17.73;39.59;95601.97;5076418;28;20452;-66
2022/10/31 02:58:01;;;;;;;1.63;0.70;;;;;;;17.48;40.19;95594.28;5097455;28;20473;-64
2022/10/31 03:00:47;;;;;;;0.40;0.40;;;;;;;17.52;40.39;95605.09;5090130;28;20888;-62
2022/10/31 03:03:47;;;;;;;0.70;0.70;;;;;;;17.53;39.87;95622.59;5104935;28;20463;-65
2022/10/31 03:06:34;;;;;;;0.50;0.50;;;;;;;17.62;40.01;95610.31;5108704;28;20485;-64
2022/10/31 03:09:24;;;;;;;1.13;1.03;;;;;;;17.44;40.04;95603.84;5091877;28;20861;-63
2022/10/31 03:11:56;;;;;;;0.43;0.43;;;;;;;17.53;40.26;95606.69;5099551;28;20444;-64
2022/10/31 03:14:38;;;;;;;0.30;0.30;;;;;;;17.70;39.80;95607.06;5089674;28;20441;-67
2022/10/31 03:17:09;;;;;;;1.17;0.70;;;;;;;17.47;40.23;95597.19;5107353;28;20554;-66
2022/10/31 03:19:40;;;;;;;0.60;0.60;;;;;;;17.52;40.02;95602.44;5104323;28;20451;-64
2022/10/31 03:22:25;;;;;;;0.30;0.30;;;;;;;17.34;40.67;95600.50;5104541;28;20524;-65
2022/10/31 03:24:55;;;;;;;0.67;0.63;;;;;;;17.42;40.39;95610.50;5106866;28;20448;-66
2022/10/31 03:27:26;;;;;;;0.33;0.33;;;;;;;17.30;40.99;95607.44;5103162;28;20448;-65
2022/10/31 03:29:57;;;;;;;1.23;0.80;;;;;;;17.60;40.30;95609.78;5096619;28;20440;-68
2022/10/31 03:32:46;;;;;;;0.80;0.80;;;;;;;17.52;40.96;95621.00;5099475;28;21036;-64
2022/10/31 03:35:16;;;;;;;0.40;0.40;;;;;;;17.49;40.73;95621.56;5095929;28;20554;-62
2022/10/31 03:37:43;;;;;;;6.23;1.37;;;;;;;17.54;40.94;95616.22;5107089;28;20479;-63
2022/10/31 03:40:16;;;;;;;0.47;0.47;;;;;;;17.50;40.93;95617.88;5097250;28;20446;-65
2022/10/31 03:42:50;;;;;;;0.97;0.90;;;;;;;17.49;40.83;95626.88;5110867;28;20493;-64
2022/10/31 03:45:25;;;;;;;0.77;0.77;;;;;;;17.48;41.24;95630.59;5108346;28;20468;-66
2022/10/31 03:47:54;;;;;;;0.07;0.07;;;;;;;17.32;41.10;95629.16;5097526;28;21059;-64
2022/10/31 03:50:23;;;;;;;0.60;0.60;;;;;;;17.34;40.95;95626.97;5106951;28;20465;-66
2022/10/31 03:52:57;;;;;;;0.93;0.60;;;;;;;17.37;41.40;95629.09;5095382;28;20453;-62
2022/10/31 03:55:34;;;;;;;5.33;1.50;;;;;;;17.38;41.24;95622.72;5111057;28;20529;-65
2022/10/31 03:58:10;;;;;;;2.27;1.53;;;;;;;17.42;40.74;95636.97;5093273;28;20487;-62
2022/10/31 04:00:45;;;;;;;0.37;0.37;;;;;;;17.31;41.08;95646.09;5097402;28;20456;-63
2022/10/31 04:03:12;;;;;;;0.70;0.70;;;;;;;17.21;41.03;95637.16;5101079;28;20952;-66
2022/10/31 04:05:45;;;;;;;1.07;0.97;;;;;;;17.30;41.23;95647.19;5091348;28;20956;-66
2022/10/31 04:08:16;;;;;;;2.27;1.43;;;;;;;17.23;40.82;95642.97;5102397;28;20564;-64
2022/10/31 04:10:47;;;;;;;3.70;1.53;;;;;;;16.94;41.19;95626.28;5096456;28;20986;-66
2022/10/31 04:13:20;;;;;;;0.47;0.47;;;;;;;17.11;41.12;95647.88;5099126;28;20442;-65
2022/10/31 04:15:56;;;;;;;1.63;0.57;;;;;;;17.03;41.68;95650.28;5101701;28;20460;-62
2022/10/31 04:18:26;;;;;;;3.80;1.70;;;;;;;17.08;41.55;95661.63;5099808;28;20495;-65
2022/10/31 04:21:01;;;;;;;0.93;0.87;;;;;;;17.04;41.93;95642.06;5095905;28;21146;-65
2022/10/31 04:23:30;;;;;;;0.40;0.40;;;;;;;17.01;41.79;95647.94;5102197;28;20443;-62
2022/10/31 04:25:58;;;;;;;0.80;0.80;;;;;;;16.93;41.42;95653.81;5090401;28;20724;-64
2022/10/31 04:28:25;;;;;;;1.00;1.00;;;;;;;16.93;41.68;95650.38;5098794;28;20475;-65
2022/10/31 04:30:52;;;;;;;1.17;1.07;;;;;;;16.82;41.94;95659.47;5092358;28;20436;-68
2022/10/31 04:33:20;;;;;;;0.67;0.57;;;;;;;16.89;41.88;95634.28;5094875;28;20436;-67
2022/10/31 04:35:47;;;;;;;0.40;0.40;;;;;;;16.98;42.13;95648.50;5098152;28;20441;-67
2022/10/31 04:38:14;;;;;;;0.70;0.70;;;;;;;17.05;41.50;95651.63;5091913;28;20492;-64
2022/10/31 04:40:42;;;;;;;2.13;1.47;;;;;;;17.01;41.86;95647.13;5109564;28;20440;-64
2022/10/31 04:43:29;;;;;;;1.80;1.63;;;;;;;16.99;42.05;95655.34;5091509;28;21040;-65
2022/10/31 04:45:58;;;;;;;0.30;0.30;;;;;;;16.80;42.05;95667.69;5100087;28;20454;-64
2022/10/31 04:48:25;;;;;;;0.30;0.30;;;;;;;16.85;41.95;95667.66;5095234;28;20570;-66
2022/10/31 04:50:52;;;;;;;4.13;1.73;;;;;;;16.74;42.58;95663.50;5092817;28;20448;-63
2022/10/31 04:53:20;;;;;;;0.53;0.53;;;;;;;16.86;42.13;95666.56;5094635;28;20428;-65
2022/10/31 04:56:06;;;;;;;1.03;0.97;;;;;;;16.73;42.77;95672.47;5096010;28;20576;-65
2022/10/31 04:58:39;;;;;;;1.33;0.77;;;;;;;16.90;42.04;95672.91;5095496;28;20491;-64
2022/10/31 05:01:08;;;;;;;0.60;0.60;;;;;;;16.91;42.15;95673.69;5097528;28;20453;-66
2022/10/31 05:03:35;;;;;;;5.43;3.00;;;;;;;16.93;42.31;95667.03;5102923;28;20518;-63
2022/10/31 05:06:02;;;;;;;0.83;0.83;;;;;;;16.65;42.87;95670.44;5099309;28;20879;-62
2022/10/31 05:08:28;;;;;;;1.93;1.67;;;;;;;16.97;41.85;95667.31;5093580;28;20437;-65
2022/10/31 05:11:00;;;;;;;0.57;0.57;;;;;;;16.52;45.31;95671.03;5096729;28;20925;-64
2022/10/31 05:13:31;;;;;;;1.40;1.30;;;;;;;16.79;43.37;95671.38;5096253;28;20506;-66
2022/10/31 05:16:18;;;;;;;0.30;0.30;;;;;;;16.88;42.95;95675.03;5099105;28;20449;-64
2022/10/31 05:19:04;;;;;;;2.43;2.23;;;;;;;16.87;43.88;95689.34;5104345;28;20495;-63
2022/10/31 05:21:50;;;;;;;1.67;1.53;;;;;;;17.10;43.04;95693.13;5104105;28;20508;-64
2022/10/31 05:24:21;;;;;;;1.97;1.87;;;;;;;17.00;42.81;95691.38;5107094;28;20452;-64
2022/10/31 05:26:49;;;;;;;0.97;0.97;;;;;;;17.07;43.14;95694.50;5109672;28;20475;-62
2022/10/31 05:29:16;;;;;;;1.13;1.13;;;;;;;16.92;42.82;95699.91;5095591;28;20460;-66
2022/10/31 05:31:43;;;;;;;0.67;0.67;;;;;;;16.84;42.88;95695.16;5099320;28;20555;-65
2022/10/31 05:34:23;;;;;;;1.10;1.07;;;;;;;16.96;43.00;95695.63;5089738;28;20455;-66
2022/10/31 05:37:16;;;;;;;1.30;1.20;;;;;;;16.96;42.91;95698.28;5080731;28;20795;-63
2022/10/31 05:39:44;;;;;;;1.53;1.43;;;;;;;17.01;42.77;95703.53;5089610;28;20544;-65
2022/10/31 05:42:14;;;;;;;0.50;0.50;;;;;;;16.99;42.43;95702.22;5100902;28;20455;-67
2022/10/31 05:44:41;;;;;;;3.23;2.57;;;;;;;16.95;42.94;95707.28;5088737;28;20447;-62
2022/10/31 05:47:20;;;;;;;4.70;3.43;;;;;;;17.06;43.39;95700.84;5087690;28;20469;-62
2022/10/31 05:50:06;;;;;;;6.40;4.07;;;;;;;17.00;42.93;95715.19;5088830;28;20482;-67
2022/10/31 05:52:47;;;;;;;3.27;2.90;;;;;;;16.90;43.28;95715.25;5089416;28;20447;-67
2022/10/31 05:55:24;;;;;;;3.27;1.73;;;;;;;16.93;42.86;95711.28;5102555;28;20444;-66
2022/10/31 05:58:10;;;;;;;1.50;1.40;;;;;;;17.05;42.50;95717.81;5108025;28;20491;-66
2022/10/31 06:00:39;;;;;;;2.60;2.40;;;;;;;17.11;42.88;95716.72;5105583;28;20507;-64
2022/10/31 06:03:09;;;;;;;1.93;1.40;;;;;;;17.05;42.63;95717.81;5087988;28;20437;-64
2022/10/31 06:05:56;;;;;;;4.70;3.13;;;;;;;16.80;43.88;95715.34;5103152;28;20455;-68
2022/10/31 06:08:30;;;;;;;10.67;4.67;;;;;;;17.01;43.26;95722.06;5087528;28;20528;-62
2022/10/31 06:11:01;;;;;;;3.80;3.37;;;;;;;17.11;43.58;95722.00;5093012;28;20914;-62
2022/10/31 06:13:48;;;;;;;0.90;0.90;;;;;;;16.92;43.69;95739.59;5095071;28;20952;-67
2022/10/31 06:16:20;;;;;;;2.27;2.10;;;;;;;16.44;45.48;95740.34;5101102;28;20445;-67
2022/10/31 06:18:49;;;;;;;1.30;1.27;;;;;;;16.38;46.32;95743.28;5098798;28;20492;-67
2022/10/31 06:21:16;;;;;;;1.83;1.73;;;;;;;16.77;45.49;95744.97;5103839;28;20822;-67
2022/10/31 06:23:47;;;;;;;8.03;3.53;;;;;;;17.04;44.51;95742.69;5087518;28;20452;-63
2022/10/31 06:26:34;;;;;;;8.73;4.30;;;;;;;17.42;44.07;95743.75;5088044;28;20452;-63
2022/10/31 06:29:01;;;;;;;2.10;1.87;;;;;;;17.28;43.76;95757.91;5086362;28;20526;-63
2022/10/31 06:31:58;;;;;;;1.67;1.37;;;;;;;17.41;43.78;95752.75;5096149;28;20511;-64
2022/10/31 06:34:27;;;;;;;2.63;2.03;;;;;;;17.38;42.48;95758.63;5093627;28;20456;-62
2022/10/31 06:36:54;;;;;;;0.83;0.83;;;;;;;17.31;43.16;95762.66;5108746;28;20535;-62
2022/10/31 06:39:23;;;;;;;0.93;0.93;;;;;;;17.83;42.14;95754.81;5107712;28;20480;-62
2022/10/31 06:41:52;;;;;;;1.80;1.03;;;;;;;18.23;41.56;95759.72;5087814;28;20900;-62
2022/10/31 06:44:20;;;;;;;2.63;1.97;;;;;;;18.15;41.57;95760.34;5107296;28;20448;-64
2022/10/31 06:46:53;;;;;;;1.70;1.60;;;;;;;17.81;42.41;95759.63;5093637;28;20577;-64
2022/10/31 06:49:39;;;;;;;1.10;1.10;;;;;;;17.84;42.20;95740.50;5095532;28;20586;-65
2022/10/31 06:52:14;;;;;;;1.57;1.47;;;;;;;18.05;41.63;95763.09;5089706;28;20449;-64
2022/10/31 06:54:41;;;;;;;0.80;0.80;;;;;;;17.72;42.60;95764.72;5099854;28;20449;-64
2022/10/31 06:57:08;;;;;;;0.60;0.60;;;;;;;17.95;42.57;95763.22;5107916;28;20535;-63
2022/10/31 06:59:37;;;;;;;0.83;0.83;;;;;;;18.34;41.06;95760.41;5103622;28;20567;-62
2022/10/31 07:02:04;;;;;;;0.70;0.70;;;;;;;18.23;42.13;95764.25;5106597;28;20436;-64
2022/10/31 07:04:32;;;;;;;1.10;1.00;;;;;;;18.02;42.20;95763.66;5111413;28;20472;-65
2022/10/31 07:07:01;;;;;;;3.03;2.77;;;;;;;18.04;42.77;95762.31;5099026;28;21014;-62
2022/10/31 07:09:29;;;;;;;4.27;1.90;;;;;;;18.68;41.46;95750.47;5105146;28;20997;-63
2022/10/31 07:12:00;;;;;;;3.53;1.43;;;;;;;18.38;41.88;95756.91;5091332;28;20457;-63
2022/10/31 07:14:29;;;;;;;1.70;1.60;;;;;;;18.35;41.90;95765.44;5096171;28;20428;-65
2022/10/31 07:16:56;;;;;;;4.33;2.47;;;;;;;18.27;42.31;95758.09;5100800;28;20506;-63
2022/10/31 07:19:30;;;;;;;1.70;1.33;;;;;;;18.47;41.59;95752.56;5093409;28;20488;-64
2022/10/31 07:21:57;;;;;;;0.57;0.57;;;;;;;18.30;41.96;95751.44;5090907;28;20524;-65
2022/10/31 07:24:27;;;;;;;3.30;1.80;;;;;;;18.81;40.60;95739.91;5092280;28;20444;-63
2022/10/31 07:27:09;;;;;;;2.90;2.67;;;;;;;18.65;41.24;95741.19;5101848;27;20436;-64
2022/10/31 07:29:36;;;;;;;1.40;1.30;;;;;;;19.60;39.99;95736.38;5092981;28;20441;-64
2022/10/31 07:32:03;;;;;;;1.07;1.07;;;;;;;19.41;40.33;95732.19;5102335;28;20441;-64
2022/10/31 07:34:33;;;;;;;2.43;1.47;;;;;;;19.54;40.02;95736.75;5091306;28;20449;-63
2022/10/31 07:37:14;;;;;;;1.23;1.10;;;;;;;19.44;40.17;95736.91;5110969;28;20849;-63
2022/10/31 07:39:41;;;;;;;5.23;3.23;;;;;;;19.46;40.48;95740.06;5097674;28;20508;-64
2022/10/31 07:42:09;;;;;;;2.73;1.57;;;;;;;19.88;39.76;95737.25;5103329;28;20437;-63
2022/10/31 07:44:41;;;;;;;1.07;1.07;;;;;;;18.76;41.83;95742.66;5090467;28;20608;-63
2022/10/31 07:47:26;;;;;;;21.87;2.23;;;;;;;19.18;41.37;95739.94;5111690;28;20529;-64
2022/10/31 07:50:29;;;;;;;4.47;1.63;;;;;;;19.45;40.94;95725.22;5078968;28;20473;-64
2022/10/31 07:53:08;;;;;;;0.57;0.57;;;;;;;19.88;40.13;95737.25;5101670;28;20965;-64
2022/10/31 07:56:07;;;;;;;1.13;1.10;;;;;;;19.45;40.99;95743.81;5096954;28;20483;-64
2022/10/31 07:58:34;;;;;;;1.67;1.13;;;;;;;19.99;40.01;95742.09;5111309;28;20900;-62
2022/10/31 08:01:01;;;;;;;1.23;1.20;;;;;;;20.48;39.19;95730.81;5093313;28;20524;-65
2022/10/31 08:03:38;;;;;;;8.13;1.83;;;;;;;20.66;38.68;95737.09;5091098;28;20520;-63
2022/10/31 08:06:23;;;;;;;0.73;0.67;;;;;;;20.83;38.19;95738.06;5092008;28;20530;-66
2022/10/31 08:09:10;;;;;;;2.40;2.20;;;;;;;20.37;39.12;95734.75;5108259;28;20861;-63
2022/10/31 08:11:38;;;;;;;1.80;1.70;;;;;;;20.91;38.61;95726.69;5111527;28;20452;-63
2022/10/31 08:14:06;;;;;;;9.20;4.27;;;;;;;21.58;37.21;95705.44;5111382;28;20474;-63
2022/10/31 08:16:33;;;;;;;1.93;1.83;;;;;;;21.07;38.08;95722.66;5111719;28;21187;-63
2022/10/31 08:19:03;;;;;;;0.87;0.87;;;;;;;21.60;37.54;95725.41;5096598;28;20473;-65
2022/10/31 08:21:36;;;;;;;0.80;0.80;;;;;;;22.05;37.06;95723.47;5103848;28;20523;-65
2022/10/31 08:24:03;;;;;;;0.93;0.93;;;;;;;22.28;35.74;95724.97;5089892;28;20756;-63
2022/10/31 08:29:17;;;;;;;5.10;2.10;;;;;;;21.76;36.53;95725.78;5089714;28;20195;-62
2022/10/31 08:31:45;;;;;;;3.73;2.13;;;;;;;21.82;36.18;95721.94;5089900;28;20262;-65
2022/10/31 08:34:31;;;;;;;1.43;1.27;;;;;;;21.98;35.50;95715.91;5105792;28;20202;-65
2022/10/31 08:37:19;;;;;;;5.80;2.33;;;;;;;22.73;34.71;95715.72;5111265;28;20213;-65
2022/10/31 08:39:51;;;;;;;2.40;2.00;;;;;;;22.06;35.75;95717.81;5095005;28;20226;-64
2022/10/31 08:42:20;;;;;;;2.53;1.43;;;;;;;22.61;34.91;95715.50;5106253;28;20206;-65
2022/10/31 08:44:46;;;;;;;3.97;1.53;;;;;;;22.83;34.76;95718.06;5109716;28;20186;-65
2022/10/31 08:47:13;;;;;;;6.57;2.07;;;;;;;23.26;34.10;95709.31;5109409;28;20606;-64
2022/10/31 08:49:40;;;;;;;1.77;1.17;;;;;;;23.43;33.66;95709.34;5106287;28;20230;-64
2022/10/31 08:52:07;;;;;;;1.93;1.47;;;;;;;23.51;33.73;95714.66;5089875;28;20207;-63
2022/10/31 08:54:40;;;;;;;1.70;1.60;;;;;;;23.67;33.44;95709.59;5089134;28;20211;-65
2022/10/31 08:57:36;;;;;;;3.10;1.87;;;;;;;23.29;34.53;95696.13;5103792;28;20550;-64
2022/10/31 09:00:05;;;;;;;1.10;1.03;;;;;;;23.75;33.88;95712.28;5090050;28;20314;-64
2022/10/31 09:02:59;;;;;;;1.00;0.93;;;;;;;24.00;33.04;95705.25;5098542;28;20289;-65
2022/10/31 09:05:31;;;;;;;1.97;0.93;;;;;;;24.13;33.12;95712.34;5109233;28;20309;-63
2022/10/31 09:08:00;;;;;;;1.10;1.07;;;;;;;24.30;33.25;95712.28;5089989;28;20557;-64
2022/10/31 09:10:30;;;;;;;1.00;1.00;;;;;;;24.35;32.72;95701.38;5101858;28;20589;-65
2022/10/31 09:12:58;;;;;;;14.93;2.53;;;;;;;24.79;32.38;95700.84;5094470;28;20221;-63
2022/10/31 09:15:45;;;;;;;4.40;2.13;;;;;;;24.84;32.53;95692.59;5096038;28;20206;-63
2022/10/31 09:18:21;;;;;;;4.70;3.73;;;;;;;24.74;32.35;95698.34;5087509;28;20238;-64
2022/10/31 09:20:58;;;;;;;2.03;1.83;;;;;;;24.50;33.30;95692.00;5088491;28;20210;-64
2022/10/31 09:23:27;;;;;;;0.97;0.90;;;;;;;25.14;32.01;95696.03;5089190;28;20260;-64
2022/10/31 09:25:55;;;;;;;1.00;0.97;;;;;;;25.11;31.96;95688.63;5102877;28;20243;-64
2022/10/31 09:28:37;;;;;;;2.43;1.80;;;;;;;25.64;30.62;95679.81;5108482;28;20198;-64
2022/10/31 09:31:14;;;;;;;1.63;1.53;;;;;;;25.65;30.72;95689.44;5106518;28;20693;-64
2022/10/31 09:34:04;;;;;;;2.07;1.87;;;;;;;25.29;31.45;95697.31;5088610;28;20219;-63
2022/10/31 09:36:38;;;;;;;2.17;1.90;;;;;;;25.67;30.70;95692.56;5103744;28;20214;-62
2022/10/31 09:39:08;;;;;;;0.83;0.83;;;;;;;26.11;30.50;95680.28;5087505;28;20272;-64
2022/10/31 09:41:54;;;;;;;1.13;1.10;;;;;;;25.89;31.04;95690.25;5090958;28;20239;-64
2022/10/31 09:44:38;;;;;;;1.20;1.20;;;;;;;26.43;29.91;95690.13;5095604;28;20230;-64
2022/10/31 09:47:29;;;;;;;4.73;1.97;;;;;;;26.51;30.18;95687.34;5094445;28;20243;-64
2022/10/31 09:50:29;;;;;;;0.80;0.80;;;;;;;26.47;30.31;95678.38;5091071;28;20195;-64
2022/10/31 09:53:03;;;;;;;1.30;1.20;;;;;;;26.08;30.28;95686.28;5087613;28;20225;-64
2022/10/31 09:55:39;;;;;;;1.87;1.33;;;;;;;26.16;30.07;95678.16;5089330;28;20206;-64
2022/10/31 09:58:13;;;;;;;4.47;1.27;;;;;;;26.47;30.22;95683.75;5099020;28;20387;-63
2022/10/31 10:00:42;;;;;;;1.83;1.73;;;;;;;25.92;30.74;95683.47;5089681;28;20681;-64
2022/10/31 10:03:35;;;;;;;4.00;2.33;;;;;;;26.26;30.47;95668.88;5107867;28;20243;-63
2022/10/31 10:06:24;;;;;;;2.07;1.87;;;;;;;25.83;30.62;95663.97;5087846;28;20207;-63
2022/10/31 10:09:10;;;;;;;1.80;1.33;;;;;;;26.41;29.78;95657.44;5091240;28;20214;-64
2022/10/31 10:12:20;;;;;;;1.17;0.97;;;;;;;25.86;29.97;95652.56;5097601;28;20202;-64
2022/10/31 10:14:52;;;;;;;0.77;0.77;;;;;;;26.17;30.61;95652.84;5089092;28;20275;-64
2022/10/31 10:17:27;;;;;;;0.70;0.70;;;;;;;26.83;29.53;95654.16;5102603;28;20198;-64
2022/10/31 10:20:15;;;;;;;1.03;1.03;;;;;;;26.28;30.54;95645.13;5109709;28;20213;-64
2022/10/31 10:22:56;;;;;;;1.80;1.13;;;;;;;27.15;28.88;95646.22;5106945;28;20198;-62
2022/10/31 10:25:39;;;;;;;3.70;1.67;;;;;;;27.21;28.64;95636.81;5099361;28;20266;-64
2022/10/31 10:28:20;;;;;;;1.40;1.30;;;;;;;27.31;28.24;95620.97;5094488;28;20777;-63
2022/10/31 10:30:49;;;;;;;1.10;1.03;;;;;;;26.57;29.87;95637.59;5097351;28;20254;-63
2022/10/31 10:33:23;;;;;;;1.03;0.93;;;;;;;26.95;28.79;95629.91;5107244;28;20228;-63
2022/10/31 10:36:01;;;;;;;1.53;1.10;;;;;;;26.62;29.67;95626.59;5109409;28;20297;-64
2022/10/31 10:38:46;;;;;;;0.63;0.63;;;;;;;26.63;28.46;95614.75;5095227;28;20194;-64
2022/10/31 10:41:19;;;;;;;0.60;0.60;;;;;;;27.47;28.28;95615.59;5094789;28;20227;-64
2022/10/31 10:43:49;;;;;;;0.63;0.63;;;;;;;26.45;29.40;95615.31;5095887;28;20182;-64
2022/10/31 10:49:29;;;;;;;1.43;1.33;;;;;;;27.22;28.79;95611.44;5088750;28;20199;-64
2022/10/31 10:52:00;;;;;;;1.30;0.63;;;;;;;27.46;27.69;95611.38;5088329;28;20191;-64
2022/10/31 10:54:53;;;;;;;0.50;0.50;;;;;;;26.83;28.95;95610.34;5108920;28;20194;-62
2022/10/31 10:57:41;;;;;;;0.60;0.60;;;;;;;27.38;28.07;95609.59;5092117;28;20237;-65
2022/10/31 11:00:27;;;;;;;0.40;0.40;;;;;;;26.54;28.12;95603.34;5088806;28;20227;-65
2022/10/31 11:02:55;;;;;;;0.23;0.23;;;;;;;27.33;27.41;95601.78;5088476;28;20228;-64
2022/10/31 11:05:34;;;;;;;0.30;0.30;;;;;;;27.02;27.37;95608.59;5101268;28;20191;-63
2022/10/31 11:08:02;;;;;;;4.30;1.10;;;;;;;27.02;27.48;95602.44;5102596;28;20191;-64
2022/10/31 11:10:29;;;;;;;0.30;0.30;;;;;;;27.13;27.45;95600.06;5102244;28;20186;-64
2022/10/31 11:13:13;;;;;;;2.40;1.90;;;;;;;27.35;27.25;95594.94;5103191;28;20191;-63
2022/10/31 11:15:55;;;;;;;0.70;0.57;;;;;;;26.97;28.43;95595.41;5102310;28;20201;-65
2022/10/31 11:18:25;;;;;;;1.27;1.17;;;;;;;27.41;27.57;95587.41;5096416;28;20190;-64
2022/10/31 11:20:55;;;;;;;1.97;1.77;;;;;;;27.80;26.96;95581.88;5093938;28;20262;-63
2022/10/31 11:23:24;;;;;;;0.70;0.70;;;;;;;27.50;26.45;95586.09;5095698;28;20216;-63
2022/10/31 11:26:05;;;;;;;0.40;0.40;;;;;;;27.70;27.80;95578.91;5095005;28;20191;-63
2022/10/31 11:28:36;;;;;;;0.23;0.23;;;;;;;27.76;26.95;95577.50;5096021;28;20206;-62
2022/10/31 11:31:11;;;;;;;0.70;0.70;;;;;;;27.76;26.39;95566.72;5108830;28;20186;-62
2022/10/31 11:33:44;;;;;;;0.40;0.40;;;;;;;28.11;26.27;95567.63;5108505;28;20225;-65
2022/10/31 11:36:18;;;;;;;0.93;0.93;;;;;;;27.35;26.52;95578.00;5108871;28;20198;-63
2022/10/31 11:38:45;;;;;;;0.60;0.47;;;;;;;28.13;25.82;95557.28;5108679;28;20198;-63
2022/10/31 11:41:33;;;;;;;0.40;0.40;;;;;;;27.88;26.10;95572.06;5110792;28;20225;-64
2022/10/31 11:44:04;;;;;;;0.20;0.20;;;;;;;28.89;25.43;95556.63;5100573;28;20194;-67
2022/10/31 11:46:39;;;;;;;5.17;2.00;;;;;;;29.19;25.52;95551.44;5097279;27;20686;-63
2022/10/31 11:49:17;;;;;;;8.10;3.97;;;;;;;29.98;25.09;95547.84;5111821;28;20646;-64
2022/10/31 11:51:49;;;;;;;0.67;0.67;;;;;;;30.07;24.32;95547.56;5094991;28;20736;-64
2022/10/31 11:54:30;;;;;;;0.60;0.50;;;;;;;30.34;23.79;95541.84;5111028;28;20232;-65
2022/10/31 11:56:57;;;;;;;0.50;0.50;;;;;;;30.94;23.57;95547.25;5098234;28;20740;-64
2022/10/31 11:59:31;;;;;;;0.70;0.70;;;;;;;30.74;23.44;95539.28;5105455;28;20221;-62
2022/10/31 12:02:00;;;;;;;0.70;0.70;;;;;;;30.44;23.10;95535.78;5104579;28;20205;-64
2022/10/31 12:04:40;;;;;;;0.40;0.40;;;;;;;30.13;22.90;95527.22;5090136;28;20646;-63
2022/10/31 12:07:07;;;;;;;0.70;0.70;;;;;;;31.43;22.67;95523.44;5091334;28;20237;-66
2022/10/31 12:09:36;;;;;;;0.47;0.47;;;;;;;32.51;21.65;95531.69;5110688;28;20279;-63
2022/10/31 12:12:12;;;;;;;0.60;0.60;;;;;;;31.59;21.76;95523.97;5099893;28;20219;-64